createdAt,value
2018-03-25T00:00:34.066Z,23.00
2018-03-25T00:01:34.057Z,23.60
2018-03-25T00:02:34.043Z,24.80
2018-03-25T00:03:34.038Z,23.00
2018-03-25T00:04:34.026Z,22.10
2018-03-25T00:05:34.019Z,22.70
2018-03-25T00:06:34.013Z,22.60
2018-03-25T00:07:33.998Z,23.20
2018-03-25T00:08:33.990Z,22.00
2018-03-25T00:09:33.981Z,23.20
2018-03-25T00:10:33.971Z,22.90
2018-03-25T00:11:33.962Z,23.10
2018-03-25T00:12:33.957Z,22.80
2018-03-25T00:13:33.947Z,24.60
2018-03-25T00:14:33.939Z,23.80
2018-03-25T00:15:33.930Z,22.60
2018-03-25T00:16:33.922Z,24.00
2018-03-25T00:17:33.907Z,22.50
2018-03-25T00:18:33.898Z,22.90
2018-03-25T00:19:33.888Z,23.10
2018-03-25T00:20:33.879Z,23.00
2018-03-25T00:21:33.871Z,21.90
2018-03-25T00:22:33.859Z,22.60
2018-03-25T00:23:33.850Z,21.20
2018-03-25T00:24:33.842Z,22.40
2018-03-25T00:25:33.834Z,21.60
2018-03-25T00:26:33.828Z,22.10
2018-03-25T00:27:33.817Z,21.90
2018-03-25T00:28:33.805Z,22.80
2018-03-25T00:29:33.797Z,22.00
2018-03-25T00:30:33.787Z,22.90
2018-03-25T00:31:33.780Z,23.40
2018-03-25T00:32:33.771Z,22.50
2018-03-25T00:33:33.764Z,21.70
2018-03-25T00:34:33.749Z,22.60
2018-03-25T00:35:33.739Z,21.60
2018-03-25T00:36:33.730Z,21.50
2018-03-25T00:37:33.722Z,23.00
2018-03-25T00:38:33.711Z,22.20
2018-03-25T00:39:33.702Z,23.50
2018-03-25T00:40:33.694Z,22.30
2018-03-25T00:41:33.685Z,22.30
2018-03-25T00:42:33.675Z,21.80
2018-03-25T00:43:33.665Z,21.80
2018-03-25T00:44:33.661Z,22.80
2018-03-25T00:45:33.652Z,22.40
2018-03-25T00:46:33.641Z,22.50
2018-03-25T00:47:33.633Z,22.70
2018-03-25T00:48:33.619Z,22.50
2018-03-25T00:49:33.612Z,22.50
2018-03-25T00:50:33.601Z,23.10
2018-03-25T00:51:33.591Z,22.00
2018-03-25T00:52:33.584Z,22.40
2018-03-25T00:53:33.575Z,21.90
2018-03-25T00:54:33.564Z,23.30
2018-03-25T00:55:33.555Z,21.40
2018-03-25T00:56:33.545Z,21.40
2018-03-25T00:57:33.537Z,22.00
2018-03-25T00:58:33.532Z,21.90
2018-03-25T00:59:33.522Z,22.20
2018-03-25T01:00:33.508Z,21.20
2018-03-25T01:01:33.499Z,22.40
2018-03-25T01:02:33.488Z,22.00
2018-03-25T01:03:33.481Z,22.00
2018-03-25T01:04:33.475Z,22.30
2018-03-25T01:05:33.467Z,21.40
2018-03-25T01:06:33.452Z,22.40
2018-03-25T01:07:33.483Z,21.90
2018-03-25T01:08:33.433Z,22.70
2018-03-25T01:09:33.431Z,22.10
2018-03-25T01:10:33.421Z,21.90
2018-03-25T01:11:33.406Z,21.90
2018-03-25T01:12:33.401Z,20.80
2018-03-25T01:13:33.389Z,22.10
2018-03-25T01:14:33.381Z,21.70
2018-03-25T01:15:33.368Z,22.90
2018-03-25T01:16:33.363Z,21.70
2018-03-25T01:17:33.354Z,22.20
2018-03-25T01:18:33.340Z,21.70
2018-03-25T01:19:33.330Z,21.20
2018-03-25T01:20:33.322Z,22.10
2018-03-25T01:21:33.314Z,21.10
2018-03-25T01:22:33.302Z,21.90
2018-03-25T01:23:33.294Z,21.70
2018-03-25T01:24:33.287Z,21.90
2018-03-25T01:25:33.285Z,21.50
2018-03-25T01:26:33.266Z,21.20
2018-03-25T01:27:33.256Z,21.60
2018-03-25T01:28:33.250Z,20.60
2018-03-25T01:29:33.242Z,21.40
2018-03-25T01:30:33.228Z,21.70
2018-03-25T01:31:33.219Z,21.20
2018-03-25T01:32:33.228Z,21.50
2018-03-25T01:33:33.200Z,21.40
2018-03-25T01:34:33.189Z,22.40
2018-03-25T01:35:33.181Z,21.80
2018-03-25T01:36:33.171Z,21.80
2018-03-25T01:37:33.162Z,20.70
2018-03-25T01:38:33.156Z,21.30
2018-03-25T01:39:33.147Z,21.00
2018-03-25T01:40:33.134Z,21.30
2018-03-25T01:41:33.125Z,21.40
2018-03-25T01:42:33.121Z,21.40
2018-03-25T01:43:33.112Z,21.20
2018-03-25T01:44:33.095Z,21.10
2018-03-25T01:45:33.087Z,20.90
2018-03-25T01:46:33.077Z,21.10
2018-03-25T01:47:33.068Z,21.80
2018-03-25T01:48:33.058Z,20.80
2018-03-25T01:49:33.054Z,21.40
2018-03-25T01:50:33.039Z,21.60
2018-03-25T01:51:33.029Z,21.00
2018-03-25T01:52:33.020Z,21.60
2018-03-25T01:53:33.011Z,20.50
2018-03-25T01:54:33.001Z,21.40
2018-03-25T01:55:32.992Z,20.50
2018-03-25T01:56:32.986Z,21.30
2018-03-25T01:57:32.977Z,20.60
2018-03-25T01:58:32.962Z,21.00
2018-03-25T01:59:32.953Z,21.30
2018-03-25T02:00:32.957Z,21.20
2018-03-25T02:01:32.938Z,22.20
2018-03-25T02:02:32.924Z,21.20
2018-03-25T02:03:32.915Z,20.90
2018-03-25T02:04:32.906Z,21.00
2018-03-25T02:05:32.898Z,20.90
2018-03-25T02:06:32.886Z,22.70
2018-03-25T02:07:32.876Z,22.10
2018-03-25T02:08:32.868Z,21.40
2018-03-25T02:09:32.859Z,21.70
2018-03-25T02:10:32.851Z,22.20
2018-03-25T02:11:32.842Z,21.60
2018-03-25T02:12:32.829Z,21.30
2018-03-25T02:13:32.820Z,21.50
2018-03-25T02:14:32.813Z,21.80
2018-03-25T02:15:32.804Z,21.00
2018-03-25T02:16:32.790Z,21.30
2018-03-25T02:17:32.781Z,22.20
2018-03-25T02:18:32.772Z,21.80
2018-03-25T02:19:32.761Z,21.70
2018-03-25T02:20:32.751Z,22.20
2018-03-25T02:21:32.742Z,20.50
2018-03-25T02:22:32.737Z,21.10
2018-03-25T02:23:32.739Z,22.00
2018-03-25T02:24:32.712Z,20.60
2018-03-25T02:25:32.709Z,20.70
2018-03-25T02:26:32.694Z,21.50
2018-03-25T02:27:32.686Z,22.20
2018-03-25T02:28:32.675Z,20.90
2018-03-25T02:29:32.667Z,20.60
2018-03-25T02:30:32.655Z,22.10
2018-03-25T02:31:32.647Z,21.90
2018-03-25T02:32:32.638Z,21.40
2018-03-25T02:33:32.629Z,21.60
2018-03-25T02:34:32.621Z,20.30
2018-03-25T02:35:32.614Z,21.70
2018-03-25T02:36:32.599Z,21.70
2018-03-25T02:37:32.589Z,22.30
2018-03-25T02:38:32.577Z,22.70
2018-03-25T02:39:32.568Z,21.10
2018-03-25T02:40:32.562Z,21.60
2018-03-25T02:41:32.559Z,19.60
2018-03-25T02:42:32.538Z,22.40
2018-03-25T02:43:32.531Z,21.20
2018-03-25T02:44:32.520Z,20.50
2018-03-25T02:45:32.524Z,21.00
2018-03-25T02:46:32.500Z,20.70
2018-03-25T02:47:32.492Z,21.60
2018-03-25T02:48:32.483Z,21.50
2018-03-25T02:49:32.472Z,20.90
2018-03-25T02:50:32.462Z,21.10
2018-03-25T02:51:32.454Z,20.50
2018-03-25T02:52:32.447Z,21.80
2018-03-25T02:53:32.437Z,20.60
2018-03-25T02:54:32.427Z,21.90
2018-03-25T02:55:32.418Z,21.60
2018-03-25T02:56:32.404Z,21.20
2018-03-25T02:57:32.395Z,21.20
2018-03-25T02:58:32.384Z,22.30
2018-03-25T02:59:32.373Z,22.70
2018-03-25T03:00:32.366Z,21.90
2018-03-25T03:01:32.355Z,22.70
2018-03-25T03:02:32.407Z,22.40
2018-03-25T03:03:32.336Z,22.00
2018-03-25T03:04:32.326Z,22.10
2018-03-25T03:05:32.315Z,22.80
2018-03-25T03:06:32.308Z,22.80
2018-03-25T03:07:32.300Z,23.20
2018-03-25T03:08:32.284Z,23.30
2018-03-25T03:09:32.274Z,22.50
2018-03-25T03:10:32.264Z,23.70
2018-03-25T03:11:32.255Z,23.00
2018-03-25T03:12:32.253Z,22.50
2018-03-25T03:13:32.238Z,23.70
2018-03-25T03:14:32.224Z,22.80
2018-03-25T03:15:32.213Z,23.30
2018-03-25T03:16:32.203Z,23.10
2018-03-25T03:17:32.194Z,21.50
2018-03-25T03:18:32.183Z,22.20
2018-03-25T03:19:32.173Z,22.30
2018-03-25T03:20:32.162Z,21.60
2018-03-25T03:21:32.151Z,20.90
2018-03-25T03:22:32.140Z,21.80
2018-03-25T03:23:32.129Z,22.00
2018-03-25T03:24:32.124Z,22.90
2018-03-25T03:25:32.113Z,21.30
2018-03-25T03:26:32.098Z,23.00
2018-03-25T03:27:32.087Z,22.10
2018-03-25T03:28:32.076Z,23.10
2018-03-25T03:29:32.067Z,20.80
2018-03-25T03:30:32.057Z,22.40
2018-03-25T03:31:32.049Z,23.50
2018-03-25T03:32:32.038Z,22.40
2018-03-25T03:33:32.028Z,22.30
2018-03-25T03:34:32.013Z,22.80
2018-03-25T03:35:32.002Z,21.50
2018-03-25T03:36:31.994Z,22.90
2018-03-25T03:37:31.985Z,22.60
2018-03-25T03:38:31.969Z,21.60
2018-03-25T03:39:31.960Z,22.40
2018-03-25T03:40:31.949Z,23.80
2018-03-25T03:41:31.939Z,21.40
2018-03-25T03:42:31.925Z,22.50
2018-03-25T03:43:31.915Z,22.10
2018-03-25T03:44:31.907Z,22.20
2018-03-25T03:45:31.899Z,21.90
2018-03-25T03:46:31.887Z,22.60
2018-03-25T03:47:31.876Z,21.50
2018-03-25T03:48:31.862Z,21.90
2018-03-25T03:49:31.851Z,21.50
2018-03-25T03:50:31.844Z,21.80
2018-03-25T03:51:31.834Z,21.70
2018-03-25T03:52:31.818Z,20.60
2018-03-25T03:53:31.810Z,20.80
2018-03-25T03:54:31.796Z,20.50
2018-03-25T03:55:31.787Z,21.00
2018-03-25T03:56:31.775Z,20.90
2018-03-25T03:57:31.766Z,22.90
2018-03-25T03:58:31.754Z,21.70
2018-03-25T03:59:31.744Z,22.00
2018-03-25T04:00:31.737Z,21.30
2018-03-25T04:01:31.724Z,22.20
2018-03-25T04:02:31.710Z,21.30
2018-03-25T04:03:31.700Z,22.80
2018-03-25T04:04:31.697Z,21.80
2018-03-25T04:05:31.683Z,20.90
2018-03-25T04:06:31.673Z,22.20
2018-03-25T04:07:31.656Z,21.30
2018-03-25T04:08:31.679Z,20.80
2018-03-25T04:09:31.639Z,21.10
2018-03-25T04:10:31.628Z,21.20
2018-03-25T04:11:31.613Z,20.70
2018-03-25T04:12:31.603Z,22.10
2018-03-25T04:13:31.592Z,21.40
2018-03-25T04:14:31.580Z,23.00
2018-03-25T04:15:31.570Z,20.80
2018-03-25T04:16:31.559Z,20.20
2018-03-25T04:17:31.548Z,21.90
2018-03-25T04:18:31.540Z,20.30
2018-03-25T04:19:31.533Z,21.30
2018-03-25T04:20:31.515Z,20.10
2018-03-25T04:21:31.505Z,20.30
2018-03-25T04:22:31.496Z,20.70
2018-03-25T04:23:31.486Z,21.60
2018-03-25T04:24:31.470Z,20.80
2018-03-25T04:25:31.460Z,21.80
2018-03-25T04:26:31.449Z,22.00
2018-03-25T04:27:31.438Z,22.30
2018-03-25T04:28:31.427Z,21.20
2018-03-25T04:29:31.417Z,20.60
2018-03-25T04:30:31.404Z,20.60
2018-03-25T04:31:31.394Z,22.10
2018-03-25T04:32:31.387Z,21.50
2018-03-25T04:33:31.376Z,21.30
2018-03-25T04:34:31.365Z,21.10
2018-03-25T04:35:31.350Z,20.70
2018-03-25T04:36:31.339Z,20.50
2018-03-25T04:37:31.327Z,21.20
2018-03-25T04:38:31.316Z,21.30
2018-03-25T04:39:31.307Z,21.20
2018-03-25T04:40:31.294Z,20.80
2018-03-25T04:41:31.284Z,20.50
2018-03-25T04:42:31.271Z,21.90
2018-03-25T04:43:31.260Z,20.00
2018-03-25T04:44:31.254Z,20.10
2018-03-25T04:45:31.243Z,20.10
2018-03-25T04:46:31.231Z,21.40
2018-03-25T04:47:31.220Z,20.30
2018-03-25T04:48:31.205Z,20.80
2018-03-25T04:49:31.194Z,21.30
2018-03-25T04:50:31.184Z,21.80
2018-03-25T04:51:31.174Z,21.20
2018-03-25T04:52:31.162Z,21.00
2018-03-25T04:53:31.150Z,22.40
2018-03-25T04:54:31.139Z,22.10
2018-03-25T04:55:31.128Z,21.40
2018-03-25T04:56:31.116Z,21.20
2018-03-25T04:57:31.106Z,22.00
2018-03-25T04:58:31.097Z,21.40
2018-03-25T04:59:31.086Z,22.20
2018-03-25T05:00:31.072Z,21.80
2018-03-25T05:01:31.061Z,20.90
2018-03-25T05:02:31.049Z,21.40
2018-03-25T05:03:31.037Z,22.40
2018-03-25T05:04:31.030Z,23.50
2018-03-25T05:05:31.020Z,21.00
2018-03-25T05:06:31.003Z,21.40
2018-03-25T05:07:30.993Z,21.60
2018-03-25T05:08:30.983Z,21.70
2018-03-25T05:09:30.971Z,21.40
2018-03-25T05:10:30.958Z,21.80
2018-03-25T05:11:30.948Z,21.30
2018-03-25T05:12:30.938Z,22.70
2018-03-25T05:13:30.926Z,21.50
2018-03-25T05:14:30.915Z,22.30
2018-03-25T05:15:30.901Z,21.90
2018-03-25T05:16:30.894Z,21.80
2018-03-25T05:17:30.884Z,22.30
2018-03-25T05:18:30.871Z,20.90
2018-03-25T05:19:30.862Z,22.30
2018-03-25T05:20:30.845Z,22.10
2018-03-25T05:21:30.836Z,22.30
2018-03-25T05:22:30.823Z,22.10
2018-03-25T05:23:30.811Z,21.80
2018-03-25T05:24:30.801Z,21.60
2018-03-25T05:25:30.791Z,22.00
2018-03-25T05:26:30.779Z,22.20
2018-03-25T05:27:30.769Z,22.70
2018-03-25T05:28:30.755Z,21.50
2018-03-25T05:29:30.744Z,21.90
2018-03-25T05:30:30.739Z,22.20
2018-03-25T05:31:30.727Z,21.90
2018-03-25T05:32:30.709Z,22.80
2018-03-25T05:33:30.698Z,22.60
2018-03-25T05:34:30.687Z,22.50
2018-03-25T05:35:30.676Z,23.00
2018-03-25T05:36:30.665Z,23.20
2018-03-25T05:37:30.653Z,23.60
2018-03-25T05:38:30.644Z,23.70
2018-03-25T05:39:30.634Z,22.70
2018-03-25T05:40:30.618Z,23.90
2018-03-25T05:41:30.608Z,22.90
2018-03-25T05:42:30.600Z,22.90
2018-03-25T05:43:30.589Z,23.20
2018-03-25T05:44:30.573Z,23.40
2018-03-25T05:45:30.562Z,24.00
2018-03-25T05:46:30.556Z,23.80
2018-03-25T05:47:30.539Z,24.70
2018-03-25T05:48:30.529Z,23.30
2018-03-25T05:49:30.521Z,23.60
2018-03-25T05:50:30.506Z,24.20
2018-03-25T05:51:30.495Z,23.30
2018-03-25T05:52:30.485Z,23.60
2018-03-25T05:53:30.472Z,23.60
2018-03-25T05:54:30.460Z,23.30
2018-03-25T05:55:30.449Z,23.70
2018-03-25T05:56:30.443Z,22.30
2018-03-25T05:57:30.432Z,21.60
2018-03-25T05:58:30.415Z,22.30
2018-03-25T05:59:30.405Z,21.70
2018-03-25T06:00:30.399Z,21.60
2018-03-25T06:01:30.388Z,22.70
2018-03-25T06:02:30.374Z,21.60
2018-03-25T06:03:30.362Z,21.80
2018-03-25T06:04:30.354Z,21.30
2018-03-25T06:05:30.341Z,21.70
2018-03-25T06:06:30.330Z,21.40
2018-03-25T06:07:30.320Z,22.40
2018-03-25T06:08:30.310Z,21.40
2018-03-25T06:09:30.300Z,22.70
2018-03-25T06:10:30.295Z,20.60
2018-03-25T06:11:30.283Z,21.50
2018-03-25T06:12:30.269Z,21.90
2018-03-25T06:13:30.260Z,21.30
2018-03-25T06:14:30.265Z,21.20
2018-03-25T06:15:30.244Z,22.30
2018-03-25T06:16:30.230Z,22.20
2018-03-25T06:17:30.229Z,22.30
2018-03-25T06:18:30.211Z,23.10
2018-03-25T06:19:30.204Z,21.90
2018-03-25T06:20:30.194Z,22.20
2018-03-25T06:21:30.190Z,21.80
2018-03-25T06:22:30.177Z,21.00
2018-03-25T06:23:30.168Z,22.00
2018-03-25T06:24:30.160Z,21.00
2018-03-25T06:25:30.153Z,21.40
2018-03-25T06:26:30.150Z,20.40
2018-03-25T06:27:30.136Z,20.80
2018-03-25T06:28:30.132Z,22.80
2018-03-25T06:29:30.125Z,21.20
2018-03-25T06:30:30.112Z,21.10
2018-03-25T06:31:30.105Z,20.60
2018-03-25T06:32:30.102Z,20.70
2018-03-25T06:33:30.096Z,21.60
2018-03-25T06:34:30.086Z,21.10
2018-03-25T06:35:30.080Z,21.10
2018-03-25T06:36:30.074Z,19.50
2018-03-25T06:37:30.066Z,19.60
2018-03-25T06:38:30.059Z,22.20
2018-03-25T06:39:30.054Z,22.00
2018-03-25T06:40:30.053Z,22.80
2018-03-25T06:41:30.046Z,22.50
2018-03-25T06:42:30.038Z,21.80
2018-03-25T06:43:30.033Z,22.20
2018-03-25T06:44:30.029Z,21.20
2018-03-25T06:45:30.024Z,22.70
2018-03-25T06:46:30.018Z,23.10
2018-03-25T06:47:30.014Z,23.00
2018-03-25T06:48:30.010Z,22.60
2018-03-25T06:49:30.006Z,22.50
2018-03-25T06:50:30.004Z,21.50
2018-03-25T06:51:29.998Z,21.30
2018-03-25T06:52:30.000Z,21.80
2018-03-25T06:53:29.996Z,21.90
2018-03-25T06:54:29.992Z,23.20
2018-03-25T06:55:29.990Z,23.10
2018-03-25T06:56:29.984Z,21.20
2018-03-25T06:57:29.981Z,22.60
2018-03-25T06:58:29.978Z,23.60
2018-03-25T06:59:29.978Z,22.10
2018-03-25T07:00:29.981Z,23.60
2018-03-25T07:01:29.973Z,23.10
2018-03-25T07:02:29.972Z,24.00
2018-03-25T07:03:29.971Z,24.60
2018-03-25T07:04:29.970Z,23.10
2018-03-25T07:05:29.970Z,24.60
2018-03-25T07:06:29.980Z,24.60
2018-03-25T07:07:29.970Z,26.10
2018-03-25T07:08:29.966Z,26.90
2018-03-25T07:09:29.967Z,27.00
2018-03-25T07:10:29.966Z,25.80
2018-03-25T07:11:29.969Z,26.10
2018-03-25T07:12:29.970Z,25.20
2018-03-25T07:13:29.972Z,25.00
2018-03-25T07:14:30.017Z,25.80
2018-03-25T07:15:29.967Z,25.30
2018-03-25T07:16:29.969Z,25.70
2018-03-25T07:17:29.969Z,25.50
2018-03-25T07:18:29.983Z,25.20
2018-03-25T07:19:29.973Z,25.30
2018-03-25T07:20:29.974Z,25.20
2018-03-25T07:21:29.988Z,26.50
2018-03-25T07:22:29.981Z,26.30
2018-03-25T07:23:29.979Z,25.90
2018-03-25T07:24:29.985Z,27.10
2018-03-25T07:25:29.987Z,26.10
2018-03-25T07:26:29.989Z,27.00
2018-03-25T07:27:29.992Z,26.50
2018-03-25T07:28:29.992Z,25.60
2018-03-25T07:29:29.994Z,26.80
2018-03-25T07:30:29.996Z,26.80
2018-03-25T07:31:30.013Z,26.80
2018-03-25T07:32:30.003Z,26.20
2018-03-25T07:33:30.010Z,26.00
2018-03-25T07:34:30.009Z,26.90
2018-03-25T07:35:30.016Z,26.10
2018-03-25T07:36:30.016Z,25.80
2018-03-25T07:37:30.020Z,25.50
2018-03-25T07:38:30.030Z,25.80
2018-03-25T07:39:30.031Z,25.80
2018-03-25T07:40:30.030Z,26.00
2018-03-25T07:41:30.036Z,26.00
2018-03-25T07:42:30.040Z,25.40
2018-03-25T07:43:30.086Z,25.20
2018-03-25T07:44:30.049Z,24.90
2018-03-25T07:45:30.052Z,25.30
2018-03-25T07:46:30.060Z,25.90
2018-03-25T07:47:30.065Z,25.50
2018-03-25T07:48:30.066Z,25.80
2018-03-25T07:49:30.074Z,25.50
2018-03-25T07:50:30.082Z,25.00
2018-03-25T07:51:30.084Z,24.80
2018-03-25T07:52:30.085Z,24.50
2018-03-25T07:53:30.091Z,25.50
2018-03-25T07:54:30.096Z,25.10
2018-03-25T07:55:30.102Z,24.50
2018-03-25T07:56:30.107Z,25.10
2018-03-25T07:57:30.111Z,24.90
2018-03-25T07:58:30.117Z,25.70
2018-03-25T07:59:30.122Z,24.30
2018-03-25T08:00:30.132Z,24.20
2018-03-25T08:01:30.137Z,24.00
2018-03-25T08:02:30.138Z,23.20
2018-03-25T08:03:30.144Z,23.40
2018-03-25T08:04:30.156Z,23.50
2018-03-25T08:05:30.161Z,23.20
2018-03-25T08:06:30.162Z,23.00
2018-03-25T08:07:30.169Z,23.50
2018-03-25T08:08:30.179Z,23.20
2018-03-25T08:09:30.186Z,22.40
2018-03-25T08:10:30.188Z,22.40
2018-03-25T08:11:30.196Z,22.40
2018-03-25T08:12:30.202Z,22.30
2018-03-25T08:13:30.211Z,21.90
2018-03-25T08:14:30.217Z,21.60
2018-03-25T08:15:30.224Z,21.30
2018-03-25T08:16:30.232Z,21.00
2018-03-25T08:17:30.245Z,21.80
2018-03-25T08:18:30.249Z,21.90
2018-03-25T08:19:30.257Z,22.00
2018-03-25T08:20:30.262Z,22.50
2018-03-25T08:21:30.277Z,21.40
2018-03-25T08:22:30.280Z,19.70
2018-03-25T08:23:30.293Z,21.50
2018-03-25T08:24:30.293Z,21.80
2018-03-25T08:25:30.302Z,21.80
2018-03-25T08:26:30.311Z,21.60
2018-03-25T08:27:30.320Z,21.60
2018-03-25T08:28:30.328Z,21.00
2018-03-25T08:29:30.338Z,21.10
2018-03-25T08:30:30.345Z,20.70
2018-03-25T08:31:30.354Z,20.70
2018-03-25T08:32:30.364Z,19.70
2018-03-25T08:33:30.374Z,19.90
2018-03-25T08:34:30.382Z,19.40
2018-03-25T08:35:30.393Z,20.50
2018-03-25T08:36:30.407Z,19.80
2018-03-25T08:37:30.417Z,20.20
2018-03-25T08:38:30.426Z,19.10
2018-03-25T08:39:30.431Z,20.70
2018-03-25T08:40:30.446Z,21.20
2018-03-25T08:41:30.455Z,19.70
2018-03-25T08:42:30.461Z,20.10
2018-03-25T08:43:30.470Z,20.60
2018-03-25T08:44:30.485Z,19.40
2018-03-25T08:45:30.492Z,19.90
2018-03-25T08:46:30.530Z,19.80
2018-03-25T08:47:30.512Z,19.40
2018-03-25T08:48:30.530Z,20.00
2018-03-25T08:49:30.534Z,19.10
2018-03-25T08:50:30.549Z,20.30
2018-03-25T08:51:30.561Z,20.50
2018-03-25T08:52:30.568Z,20.10
2018-03-25T08:53:30.579Z,19.20
2018-03-25T08:54:30.594Z,18.30
2018-03-25T08:55:30.606Z,20.00
2018-03-25T08:56:30.614Z,20.40
2018-03-25T08:57:30.627Z,18.00
2018-03-25T08:58:30.637Z,20.40
2018-03-25T08:59:30.649Z,21.00
2018-03-25T09:00:30.662Z,20.70
2018-03-25T09:01:30.675Z,20.80
2018-03-25T09:02:30.687Z,21.40
2018-03-25T09:03:30.700Z,19.30
2018-03-25T09:04:30.713Z,21.30
2018-03-25T09:05:30.725Z,19.60
2018-03-25T09:06:30.736Z,19.30
2018-03-25T09:07:30.749Z,19.20
2018-03-25T09:08:30.766Z,20.10
2018-03-25T09:09:30.780Z,20.70
2018-03-25T09:10:30.788Z,20.80
2018-03-25T09:11:30.801Z,21.20
2018-03-25T09:12:30.818Z,21.40
2018-03-25T09:13:30.831Z,21.10
2018-03-25T09:14:30.842Z,21.20
2018-03-25T09:15:30.855Z,20.10
2018-03-25T09:16:30.868Z,19.20
2018-03-25T09:17:30.886Z,19.20
2018-03-25T09:18:30.894Z,19.80
2018-03-25T09:19:30.909Z,20.50
2018-03-25T09:20:30.922Z,19.50
2018-03-25T09:21:30.937Z,20.90
2018-03-25T09:22:30.953Z,18.80
2018-03-25T09:23:30.969Z,19.10
2018-03-25T09:24:30.978Z,20.80
2018-03-25T09:25:30.993Z,20.50
2018-03-25T09:26:31.010Z,19.80
2018-03-25T09:27:31.025Z,19.70
2018-03-25T09:28:31.038Z,18.80
2018-03-25T09:29:31.050Z,17.60
2018-03-25T09:30:31.065Z,19.60
2018-03-25T09:31:31.080Z,19.40
2018-03-25T09:32:31.096Z,19.90
2018-03-25T09:33:31.111Z,19.90
2018-03-25T09:34:31.124Z,20.10
2018-03-25T09:35:31.142Z,20.10
2018-03-25T09:36:31.156Z,20.10
2018-03-25T09:37:31.171Z,19.70
2018-03-25T09:38:31.185Z,19.70
2018-03-25T09:39:31.201Z,20.40
2018-03-25T09:40:31.220Z,19.90
2018-03-25T09:41:31.236Z,20.60
2018-03-25T09:42:31.247Z,19.50
2018-03-25T09:43:31.262Z,19.70
2018-03-25T09:44:31.283Z,19.30
2018-03-25T09:45:31.298Z,19.90
2018-03-25T09:46:31.310Z,20.20
2018-03-25T09:47:31.326Z,19.90
2018-03-25T09:48:31.341Z,20.00
2018-03-25T09:49:31.357Z,19.10
2018-03-25T09:50:31.373Z,19.70
2018-03-25T09:51:31.389Z,20.30
2018-03-25T09:52:31.408Z,19.90
2018-03-25T09:53:31.427Z,19.90
2018-03-25T09:54:31.440Z,19.30
2018-03-25T09:55:31.454Z,19.40
2018-03-25T09:56:31.467Z,20.80
2018-03-25T09:57:31.485Z,20.00
2018-03-25T09:58:31.512Z,20.20
2018-03-25T09:59:31.515Z,20.60
2018-03-25T10:00:31.531Z,20.30
2018-03-25T10:01:31.548Z,20.50
2018-03-25T10:02:31.562Z,19.70
2018-03-25T10:03:31.578Z,20.20
2018-03-25T10:04:31.601Z,20.40
2018-03-25T10:05:31.615Z,20.20
2018-03-25T10:06:31.633Z,19.90
2018-03-25T10:07:31.647Z,19.70
2018-03-25T10:08:31.659Z,19.80
2018-03-25T10:09:31.676Z,20.10
2018-03-25T10:10:31.691Z,20.30
2018-03-25T10:11:31.763Z,20.20
2018-03-25T10:12:31.724Z,20.20
2018-03-25T10:13:31.741Z,20.80
2018-03-25T10:14:31.757Z,20.70
2018-03-25T10:15:31.772Z,20.90
2018-03-25T10:16:31.790Z,20.10
2018-03-25T10:17:31.805Z,19.80
2018-03-25T10:18:31.824Z,20.20
2018-03-25T10:19:31.842Z,19.90
2018-03-25T10:20:31.859Z,19.60
2018-03-25T10:21:31.870Z,20.20
2018-03-25T10:22:31.886Z,19.40
2018-03-25T10:23:31.903Z,20.60
2018-03-25T10:24:31.921Z,20.10
2018-03-25T10:25:31.939Z,20.10
2018-03-25T10:26:31.950Z,20.00
2018-03-25T10:27:31.966Z,20.50
2018-03-25T10:28:31.982Z,19.60
2018-03-25T10:29:31.997Z,19.30
2018-03-25T10:30:32.013Z,19.00
2018-03-25T10:31:32.028Z,18.70
2018-03-25T10:32:32.044Z,18.90
2018-03-25T10:33:32.062Z,18.40
2018-03-25T10:34:32.076Z,18.10
2018-03-25T10:35:32.092Z,18.40
2018-03-25T10:36:32.112Z,19.10
2018-03-25T10:37:32.129Z,18.70
2018-03-25T10:38:32.144Z,18.50
2018-03-25T10:39:32.160Z,18.90
2018-03-25T10:40:32.173Z,19.60
2018-03-25T10:41:32.190Z,19.60
2018-03-25T10:42:32.204Z,19.30
2018-03-25T10:43:32.275Z,21.10
2018-03-25T10:44:32.238Z,20.00
2018-03-25T10:45:32.253Z,20.40
2018-03-25T10:46:32.270Z,19.20
2018-03-25T10:47:32.334Z,20.60
2018-03-25T10:49:32.323Z,20.50
2018-03-25T10:50:32.330Z,21.50
2018-03-25T10:51:32.350Z,21.20
2018-03-25T10:52:32.365Z,20.50
2018-03-25T10:53:32.377Z,21.30
2018-03-25T10:54:32.392Z,21.50
2018-03-25T10:55:32.408Z,21.50
2018-03-25T10:56:32.427Z,22.10
2018-03-25T10:57:32.444Z,22.80
2018-03-25T10:58:32.455Z,22.60
2018-03-25T10:59:32.474Z,23.80
2018-03-25T11:00:32.490Z,22.90
2018-03-25T11:01:32.501Z,22.90
2018-03-25T11:02:32.517Z,23.90
2018-03-25T11:03:32.537Z,23.10
2018-03-25T11:04:32.553Z,23.50
2018-03-25T11:05:32.566Z,23.80
2018-03-25T11:06:32.579Z,24.90
2018-03-25T11:07:32.600Z,23.90
2018-03-25T11:08:32.612Z,24.00
2018-03-25T11:09:32.629Z,24.20
2018-03-25T11:10:32.647Z,24.70
2018-03-25T11:11:32.658Z,24.40
2018-03-25T11:12:32.680Z,24.50
2018-03-25T11:13:32.690Z,24.90
2018-03-25T11:14:32.704Z,25.60
2018-03-25T11:15:32.760Z,25.10
2018-03-25T11:16:32.736Z,25.30
2018-03-25T11:17:32.754Z,26.30
2018-03-25T11:18:32.769Z,25.80
2018-03-25T11:19:32.784Z,24.40
2018-03-25T11:20:32.793Z,25.60
2018-03-25T11:21:32.813Z,23.80
2018-03-25T11:22:32.826Z,24.20
2018-03-25T11:23:32.839Z,25.10
2018-03-25T11:24:32.854Z,27.50
2018-03-25T11:25:32.873Z,59.50
2018-03-25T11:26:32.880Z,32.00
2018-03-25T11:27:32.896Z,29.20
2018-03-25T11:28:32.908Z,26.70
2018-03-25T11:29:32.924Z,26.40
2018-03-25T11:30:32.937Z,26.30
2018-03-25T11:31:32.957Z,25.90
2018-03-25T11:32:32.967Z,26.90
2018-03-25T11:33:32.977Z,27.30
2018-03-25T11:34:32.992Z,28.10
2018-03-25T11:35:33.005Z,27.70
2018-03-25T11:36:33.018Z,27.00
2018-03-25T11:37:33.025Z,26.80
2018-03-25T11:38:33.037Z,27.40
2018-03-25T11:39:33.048Z,27.10
2018-03-25T11:40:33.060Z,27.30
2018-03-25T11:41:33.070Z,27.40
2018-03-25T11:42:33.080Z,27.00
2018-03-25T11:43:33.091Z,27.70
2018-03-25T11:44:33.099Z,28.60
2018-03-25T11:45:33.110Z,28.60
2018-03-25T11:46:33.116Z,28.50
2018-03-25T11:47:33.133Z,28.50
2018-03-25T11:48:33.134Z,28.50
2018-03-25T11:49:33.144Z,29.00
2018-03-25T11:50:33.151Z,30.50
2018-03-25T11:51:33.155Z,30.60
2018-03-25T11:52:33.162Z,30.10
2018-03-25T11:53:33.173Z,29.50
2018-03-25T11:54:33.178Z,29.40
2018-03-25T11:55:33.181Z,28.90
2018-03-25T11:56:33.188Z,30.30
2018-03-25T11:57:33.192Z,29.10
2018-03-25T11:58:33.198Z,28.80
2018-03-25T11:59:33.203Z,28.60
2018-03-25T12:00:33.214Z,29.10
2018-03-25T12:01:33.218Z,29.10
2018-03-25T12:02:33.222Z,30.00
2018-03-25T12:03:33.228Z,28.90
2018-03-25T12:04:33.232Z,29.90
2018-03-25T12:05:33.232Z,29.10
2018-03-25T12:06:33.236Z,28.90
2018-03-25T12:07:33.240Z,28.20
2018-03-25T12:08:33.244Z,28.90
2018-03-25T12:09:33.249Z,28.80
2018-03-25T12:10:33.252Z,29.20
2018-03-25T12:11:33.255Z,28.10
2018-03-25T12:12:33.259Z,28.90
2018-03-25T12:13:33.266Z,29.20
2018-03-25T12:14:33.269Z,27.80
2018-03-25T12:15:33.276Z,28.30
2018-03-25T12:16:33.275Z,28.50
2018-03-25T12:17:33.276Z,27.50
2018-03-25T12:18:33.276Z,28.80
2018-03-25T12:19:33.290Z,28.70
2018-03-25T12:20:33.284Z,27.60
2018-03-25T12:21:33.286Z,27.70
2018-03-25T12:22:33.288Z,27.80
2018-03-25T12:23:33.293Z,26.90
2018-03-25T12:24:33.297Z,26.80
2018-03-25T12:25:33.299Z,27.40
2018-03-25T12:26:33.301Z,28.30
2018-03-25T12:27:33.307Z,28.80
2018-03-25T12:28:33.312Z,28.00
2018-03-25T12:29:33.311Z,27.90
2018-03-25T12:30:33.312Z,29.00
2018-03-25T12:31:33.315Z,28.20
2018-03-25T12:32:33.319Z,27.60
2018-03-25T12:33:33.325Z,28.30
2018-03-25T12:34:33.329Z,27.70
2018-03-25T12:35:33.328Z,27.90
2018-03-25T12:36:33.330Z,27.30
2018-03-25T12:37:33.334Z,27.40
2018-03-25T12:38:33.342Z,28.60
2018-03-25T12:39:33.340Z,28.30
2018-03-25T12:40:33.342Z,28.70
2018-03-25T12:41:33.344Z,28.20
2018-03-25T12:42:33.348Z,28.70
2018-03-25T12:43:33.350Z,27.20
2018-03-25T12:44:33.352Z,28.10
2018-03-25T12:45:33.358Z,28.70
2018-03-25T12:46:33.411Z,28.70
2018-03-25T12:47:33.363Z,27.60
2018-03-25T12:48:33.366Z,28.50
2018-03-25T12:49:33.368Z,27.30
2018-03-25T12:50:33.366Z,28.80
2018-03-25T12:51:33.368Z,28.10
2018-03-25T12:52:33.372Z,28.40
2018-03-25T12:53:33.374Z,28.20